sensor_id;sensor_type;location;lat;lon;timestamp;pressure;altitude;pressure_sealevel;temperature;humidity
33151;BME280;19508;42.578;23.416;2022-09-20T00:03:43;93730.84;;;12.65;55.44
33151;BME280;19508;42.578;23.416;2022-09-20T00:06:11;93721.38;;;12.53;54.91
33151;BME280;19508;42.578;23.416;2022-09-20T00:08:38;93730.06;;;12.65;55.48
33151;BME280;19508;42.578;23.416;2022-09-20T00:11:08;93732.41;;;12.36;55.77
33151;BME280;19508;42.578;23.416;2022-09-20T00:13:35;93737.78;;;12.26;55.65
33151;BME280;19508;42.578;23.416;2022-09-20T00:16:04;93744.81;;;12.27;55.10
33151;BME280;19508;42.578;23.416;2022-09-20T00:18:30;93743.66;;;12.12;55.21
33151;BME280;19508;42.578;23.416;2022-09-20T00:20:56;93732.81;;;11.92;55.61
33151;BME280;19508;42.578;23.416;2022-09-20T00:23:21;93742.03;;;12.11;55.12
33151;BME280;19508;42.578;23.416;2022-09-20T00:25:54;93738.78;;;11.99;56.07
33151;BME280;19508;42.578;23.416;2022-09-20T00:28:20;93740.34;;;11.95;56.56
33151;BME280;19508;42.578;23.416;2022-09-20T00:30:45;93735.94;;;11.74;57.04
33151;BME280;19508;42.578;23.416;2022-09-20T00:33:10;93732.94;;;11.70;56.69
33151;BME280;19508;42.578;23.416;2022-09-20T00:35:36;93730.34;;;11.38;57.75
33151;BME280;19508;42.578;23.416;2022-09-20T00:38:01;93741.78;;;11.61;57.51
33151;BME280;19508;42.578;23.416;2022-09-20T00:40:26;93745.06;;;11.68;57.39
33151;BME280;19508;42.578;23.416;2022-09-20T00:42:53;93739.75;;;11.36;58.43
33151;BME280;19508;42.578;23.416;2022-09-20T00:45:27;93741.19;;;11.53;58.62
33151;BME280;19508;42.578;23.416;2022-09-20T00:50:46;93745.41;;;11.34;59.08
33151;BME280;19508;42.578;23.416;2022-09-20T00:53:27;93749.22;;;11.43;59.18
33151;BME280;19508;42.578;23.416;2022-09-20T00:55:58;93739.75;;;11.36;59.42
33151;BME280;19508;42.578;23.416;2022-09-20T00:58:27;93739.56;;;11.47;58.72
33151;BME280;19508;42.578;23.416;2022-09-20T01:00:54;93743.63;;;11.50;58.68
33151;BME280;19508;42.578;23.416;2022-09-20T01:03:21;93739.53;;;11.42;58.66
33151;BME280;19508;42.578;23.416;2022-09-20T01:05:53;93739.41;;;11.27;59.53
33151;BME280;19508;42.578;23.416;2022-09-20T01:08:19;93734.66;;;11.39;58.36
33151;BME280;19508;42.578;23.416;2022-09-20T01:10:45;93726.25;;;11.30;59.18
33151;BME280;19508;42.578;23.416;2022-09-20T01:13:11;93725.97;;;11.32;58.16
33151;BME280;19508;42.578;23.416;2022-09-20T01:15:38;93726.25;;;11.30;61.10
33151;BME280;19508;42.578;23.416;2022-09-20T01:18:06;93739.53;;;11.42;60.17
33151;BME280;19508;42.578;23.416;2022-09-20T01:20:37;93723.34;;;11.42;57.05
33151;BME280;19508;42.578;23.416;2022-09-20T01:28:29;93725.59;;;11.13;61.02
33151;BME280;19508;42.578;23.416;2022-09-20T01:33:50;93726.44;;;11.19;59.12
33151;BME280;19508;42.578;23.416;2022-09-20T01:36:32;93729.78;;;10.99;59.27
33151;BME280;19508;42.578;23.416;2022-09-20T01:41:50;93717.69;;;11.01;58.49
33151;BME280;19508;42.578;23.416;2022-09-20T01:46:57;93732.34;;;11.16;57.95
33151;BME280;19508;42.578;23.416;2022-09-20T01:55:05;93734.25;;;10.83;56.53
33151;BME280;19508;42.578;23.416;2022-09-20T02:03:56;93732.28;;;10.73;56.80
33151;BME280;19508;42.578;23.416;2022-09-20T02:09:46;93724.47;;;10.72;56.47
33151;BME280;19508;42.578;23.416;2022-09-20T02:15:32;93716.44;;;10.50;57.74
33151;BME280;19508;42.578;23.416;2022-09-20T02:18:27;93716.03;;;10.63;57.18
33151;BME280;19508;42.578;23.416;2022-09-20T02:21:08;93717.91;;;10.63;58.43
33151;BME280;19508;42.578;23.416;2022-09-20T02:26:34;93717.53;;;10.49;58.85
33151;BME280;19508;42.578;23.416;2022-09-20T02:35:14;93720.81;;;10.56;59.78
33151;BME280;19508;42.578;23.416;2022-09-20T02:43:34;93712.22;;;10.27;60.82
33151;BME280;19508;42.578;23.416;2022-09-20T02:49:13;93732.47;;;10.13;61.66
33151;BME280;19508;42.578;23.416;2022-09-20T02:51:47;93733.91;;;9.99;61.87
33151;BME280;19508;42.578;23.416;2022-09-20T03:02:37;93749.19;;;9.71;63.36
33151;BME280;19508;42.578;23.416;2022-09-20T03:05:10;93731.59;;;9.42;63.95
33151;BME280;19508;42.578;23.416;2022-09-20T03:16:06;93764.19;;;9.28;64.95
33151;BME280;19508;42.578;23.416;2022-09-20T03:18:52;93767.94;;;9.27;64.65
33151;BME280;19508;42.578;23.416;2022-09-20T03:24:19;93748.59;;;9.09;64.62
33151;BME280;19508;42.578;23.416;2022-09-20T03:29:59;93774.41;;;9.10;65.48
33151;BME280;19508;42.578;23.416;2022-09-20T03:32:54;93767.31;;;9.03;65.35
33151;BME280;19508;42.578;23.416;2022-09-20T03:48:55;93773.47;;;8.70;65.90
33151;BME280;19508;42.578;23.416;2022-09-20T03:51:34;93781.78;;;8.69;66.10
33151;BME280;19508;42.578;23.416;2022-09-20T04:05:06;93772.00;;;8.63;65.99
33151;BME280;19508;42.578;23.416;2022-09-20T04:07:51;93774.94;;;8.61;65.80
33151;BME280;19508;42.578;23.416;2022-09-20T04:15:22;93789.13;;;8.45;66.45
33151;BME280;19508;42.578;23.416;2022-09-20T04:22:58;93781.25;;;8.38;66.58
33151;BME280;19508;42.578;23.416;2022-09-20T04:25:32;93788.50;;;8.38;66.92
33151;BME280;19508;42.578;23.416;2022-09-20T04:28:13;93797.69;;;8.42;66.93
33151;BME280;19508;42.578;23.416;2022-09-20T04:30:40;93798.03;;;8.34;67.03
33151;BME280;19508;42.578;23.416;2022-09-20T04:33:19;93810.53;;;8.40;67.24
33151;BME280;19508;42.578;23.416;2022-09-20T04:36:09;93807.94;;;8.33;67.21
33151;BME280;19508;42.578;23.416;2022-09-20T04:56:40;93819.19;;;8.59;67.79
33151;BME280;19508;42.578;23.416;2022-09-20T04:59:28;93811.56;;;8.67;67.96
33151;BME280;19508;42.578;23.416;2022-09-20T05:13:38;93820.69;;;9.50;66.15
33151;BME280;19508;42.578;23.416;2022-09-20T05:27:53;93824.88;;;10.02;65.90
33151;BME280;19508;42.578;23.416;2022-09-20T05:34:23;93822.59;;;10.59;62.75
33151;BME280;19508;42.578;23.416;2022-09-20T05:37:05;93813.34;;;10.50;61.87
33151;BME280;19508;42.578;23.416;2022-09-20T05:39:39;93828.34;;;10.68;61.51
33151;BME280;19508;42.578;23.416;2022-09-20T05:42:24;93819.25;;;10.74;61.27
33151;BME280;19508;42.578;23.416;2022-09-20T05:45:32;93821.59;;;10.92;60.79
33151;BME280;19508;42.578;23.416;2022-09-20T05:54:17;93819.97;;;11.55;57.66
33151;BME280;19508;42.578;23.416;2022-09-20T05:57:22;93810.78;;;11.94;56.84
33151;BME280;19508;42.578;23.416;2022-09-20T06:00:12;93812.66;;;11.88;58.55
33151;BME280;19508;42.578;23.416;2022-09-20T06:02:54;93814.09;;;12.11;57.19
33151;BME280;19508;42.578;23.416;2022-09-20T06:11:20;93818.16;;;12.91;54.97
33151;BME280;19508;42.578;23.416;2022-09-20T06:19:48;93819.25;;;13.16;53.46
33151;BME280;19508;42.578;23.416;2022-09-20T06:22:31;93810.91;;;13.53;53.88
33151;BME280;19508;42.578;23.416;2022-09-20T06:27:45;93819.25;;;14.02;51.70
33151;BME280;19508;42.578;23.416;2022-09-20T06:30:36;93813.81;;;13.92;51.21
33151;BME280;19508;42.578;23.416;2022-09-20T06:35:39;93821.53;;;14.45;50.78
33151;BME280;19508;42.578;23.416;2022-09-20T06:41:12;93816.13;;;14.45;50.07
33151;BME280;19508;42.578;23.416;2022-09-20T06:44:00;93816.72;;;14.96;49.35
33151;BME280;19508;42.578;23.416;2022-09-20T06:46:33;93809.56;;;15.10;48.47
33151;BME280;19508;42.578;23.416;2022-09-20T06:48:59;93811.59;;;15.29;48.20
33151;BME280;19508;42.578;23.416;2022-09-20T06:51:27;93813.97;;;15.35;47.94
33151;BME280;19508;42.578;23.416;2022-09-20T06:53:55;93811.81;;;15.71;46.91
33151;BME280;19508;42.578;23.416;2022-09-20T06:56:24;93822.03;;;15.85;46.91
33151;BME280;19508;42.578;23.416;2022-09-20T06:58:51;93813.19;;;15.98;44.90
33151;BME280;19508;42.578;23.416;2022-09-20T07:01:18;93817.28;;;15.95;44.01
33151;BME280;19508;42.578;23.416;2022-09-20T07:03:43;93810.38;;;16.08;44.33
33151;BME280;19508;42.578;23.416;2022-09-20T07:06:10;93821.69;;;15.91;45.81
33151;BME280;19508;42.578;23.416;2022-09-20T07:08:36;93834.53;;;16.10;45.32
33151;BME280;19508;42.578;23.416;2022-09-20T07:11:11;93833.16;;;16.12;45.50
33151;BME280;19508;42.578;23.416;2022-09-20T07:13:39;93825.66;;;16.28;45.08
33151;BME280;19508;42.578;23.416;2022-09-20T07:16:14;93823.69;;;16.33;44.18
33151;BME280;19508;42.578;23.416;2022-09-20T07:18:41;93830.38;;;16.65;43.69
33151;BME280;19508;42.578;23.416;2022-09-20T07:21:12;93828.31;;;16.81;44.08
33151;BME280;19508;42.578;23.416;2022-09-20T07:23:39;93828.56;;;17.03;44.54
33151;BME280;19508;42.578;23.416;2022-09-20T07:26:25;93827.75;;;16.84;42.68
33151;BME280;19508;42.578;23.416;2022-09-20T07:29:12;93826.81;;;17.12;42.25
33151;BME280;19508;42.578;23.416;2022-09-20T07:32:00;93833.28;;;16.74;43.58
33151;BME280;19508;42.578;23.416;2022-09-20T07:34:27;93824.50;;;16.82;43.20
33151;BME280;19508;42.578;23.416;2022-09-20T07:36:55;93823.47;;;16.78;43.25
33151;BME280;19508;42.578;23.416;2022-09-20T07:39:44;93823.47;;;17.15;41.65
33151;BME280;19508;42.578;23.416;2022-09-20T07:42:36;93829.22;;;17.33;42.23
33151;BME280;19508;42.578;23.416;2022-09-20T07:45:27;93808.25;;;17.52;43.31
33151;BME280;19508;42.578;23.416;2022-09-20T07:47:59;93819.28;;;17.61;42.71
33151;BME280;19508;42.578;23.416;2022-09-20T07:50:35;93821.13;;;17.09;41.49
33151;BME280;19508;42.578;23.416;2022-09-20T07:53:11;93817.75;;;17.36;41.08
33151;BME280;19508;42.578;23.416;2022-09-20T07:56:15;93824.84;;;17.69;41.80
33151;BME280;19508;42.578;23.416;2022-09-20T08:01:25;93811.31;;;17.64;40.26
33151;BME280;19508;42.578;23.416;2022-09-20T08:04:52;93810.50;;;17.83;39.83
33151;BME280;19508;42.578;23.416;2022-09-20T08:07:27;93815.19;;;18.10;39.84
33151;BME280;19508;42.578;23.416;2022-09-20T08:09:57;93810.41;;;18.48;38.27
33151;BME280;19508;42.578;23.416;2022-09-20T08:12:25;93820.13;;;18.81;38.74
33151;BME280;19508;42.578;23.416;2022-09-20T08:14:54;93818.97;;;18.41;38.78
33151;BME280;19508;42.578;23.416;2022-09-20T08:17:23;93815.56;;;18.03;39.64
33151;BME280;19508;42.578;23.416;2022-09-20T08:19:59;93824.22;;;18.51;39.01
33151;BME280;19508;42.578;23.416;2022-09-20T08:22:30;93828.97;;;18.59;38.26
33151;BME280;19508;42.578;23.416;2022-09-20T08:25:08;93815.44;;;18.96;41.14
33151;BME280;19508;42.578;23.416;2022-09-20T08:27:34;93821.69;;;19.10;37.54
33151;BME280;19508;42.578;23.416;2022-09-20T08:29:59;93822.66;;;19.28;36.65
33151;BME280;19508;42.578;23.416;2022-09-20T08:32:25;93807.50;;;19.80;35.88
33151;BME280;19508;42.578;23.416;2022-09-20T08:34:50;93813.47;;;20.05;35.13
33151;BME280;19508;42.578;23.416;2022-09-20T08:37:17;93800.06;;;19.72;34.06
33151;BME280;19508;42.578;23.416;2022-09-20T08:39:44;93803.66;;;19.81;36.20
33151;BME280;19508;42.578;23.416;2022-09-20T08:42:21;93795.06;;;20.19;34.55
33151;BME280;19508;42.578;23.416;2022-09-20T08:44:52;93804.50;;;20.13;35.04
33151;BME280;19508;42.578;23.416;2022-09-20T08:47:23;93808.25;;;19.94;34.14
33151;BME280;19508;42.578;23.416;2022-09-20T08:49:51;93797.59;;;19.62;36.63
33151;BME280;19508;42.578;23.416;2022-09-20T08:52:26;93795.78;;;19.80;35.15
33151;BME280;19508;42.578;23.416;2022-09-20T08:54:54;93791.38;;;19.70;34.87
33151;BME280;19508;42.578;23.416;2022-09-20T08:57:26;93794.22;;;19.87;36.48
33151;BME280;19508;42.578;23.416;2022-09-20T08:59:53;93785.91;;;19.70;35.88
33151;BME280;19508;42.578;23.416;2022-09-20T09:02:20;93791.50;;;19.65;36.28
33151;BME280;19508;42.578;23.416;2022-09-20T09:04:48;93790.78;;;20.04;35.76
33151;BME280;19508;42.578;23.416;2022-09-20T09:07:18;93780.66;;;20.05;34.26
33151;BME280;19508;42.578;23.416;2022-09-20T09:09:47;93768.34;;;19.62;36.17
33151;BME280;19508;42.578;23.416;2022-09-20T09:12:35;93779.84;;;20.35;35.98
33151;BME280;19508;42.578;23.416;2022-09-20T09:15:35;93769.00;;;19.90;33.44
33151;BME280;19508;42.578;23.416;2022-09-20T09:18:02;93781.50;;;19.60;34.30
33151;BME280;19508;42.578;23.416;2022-09-20T09:20:39;93767.00;;;19.37;35.03
33151;BME280;19508;42.578;23.416;2022-09-20T09:23:06;93758.91;;;18.74;36.48
33151;BME280;19508;42.578;23.416;2022-09-20T09:25:37;93761.09;;;19.22;36.32
33151;BME280;19508;42.578;23.416;2022-09-20T09:30:38;93772.47;;;19.01;36.61
33151;BME280;19508;42.578;23.416;2022-09-20T09:35:58;93773.75;;;18.68;36.16
33151;BME280;19508;42.578;23.416;2022-09-20T09:38:38;93765.97;;;18.47;38.28
33151;BME280;19508;42.578;23.416;2022-09-20T09:41:21;93750.19;;;18.85;41.65
33151;BME280;19508;42.578;23.416;2022-09-20T09:44:06;93746.28;;;19.36;34.70
33151;BME280;19508;42.578;23.416;2022-09-20T09:46:37;93739.91;;;19.86;35.31
33151;BME280;19508;42.578;23.416;2022-09-20T09:49:17;93749.56;;;20.63;35.37
33151;BME280;19508;42.578;23.416;2022-09-20T09:52:03;93746.78;;;21.11;37.63
33151;BME280;19508;42.578;23.416;2022-09-20T09:54:37;93748.19;;;21.08;32.13
33151;BME280;19508;42.578;23.416;2022-09-20T09:57:17;93742.09;;;20.94;35.40
33151;BME280;19508;42.578;23.416;2022-09-20T10:00:21;93737.53;;;20.81;33.42
33151;BME280;19508;42.578;23.416;2022-09-20T10:06:17;93756.53;;;20.69;32.85
33151;BME280;19508;42.578;23.416;2022-09-20T10:20:35;93740.31;;;20.02;36.07
33151;BME280;19508;42.578;23.416;2022-09-20T10:25:46;93729.69;;;20.00;35.12
33151;BME280;19508;42.578;23.416;2022-09-20T10:30:46;93731.16;;;19.53;34.95
33151;BME280;19508;42.578;23.416;2022-09-20T10:33:46;93727.56;;;19.43;35.10
33151;BME280;19508;42.578;23.416;2022-09-20T10:36:24;93732.84;;;19.04;35.31
33151;BME280;19508;42.578;23.416;2022-09-20T10:51:00;93722.13;;;20.37;33.27
33151;BME280;19508;42.578;23.416;2022-09-20T10:54:06;93726.47;;;20.86;32.92
33151;BME280;19508;42.578;23.416;2022-09-20T11:05:35;93732.72;;;19.98;33.73
33151;BME280;19508;42.578;23.416;2022-09-20T11:08:22;93722.84;;;20.20;32.85
33151;BME280;19508;42.578;23.416;2022-09-20T11:11:19;93728.63;;;20.10;33.19
33151;BME280;19508;42.578;23.416;2022-09-20T11:14:12;93716.47;;;20.33;33.90
33151;BME280;19508;42.578;23.416;2022-09-20T11:16:41;93708.69;;;20.66;33.40
33151;BME280;19508;42.578;23.416;2022-09-20T11:19:34;93701.13;;;20.54;35.45
33151;BME280;19508;42.578;23.416;2022-09-20T11:22:16;93690.41;;;20.27;32.79
33151;BME280;19508;42.578;23.416;2022-09-20T11:24:48;93691.63;;;20.52;31.96
33151;BME280;19508;42.578;23.416;2022-09-20T11:27:37;93701.44;;;20.53;33.70
33151;BME280;19508;42.578;23.416;2022-09-20T11:30:18;93695.31;;;20.08;33.35
33151;BME280;19508;42.578;23.416;2022-09-20T11:33:13;93697.06;;;20.04;33.91
33151;BME280;19508;42.578;23.416;2022-09-20T11:36:29;93696.81;;;20.22;33.22
33151;BME280;19508;42.578;23.416;2022-09-20T11:39:02;93702.19;;;20.36;36.16
33151;BME280;19508;42.578;23.416;2022-09-20T11:41:30;93703.78;;;19.97;33.02
33151;BME280;19508;42.578;23.416;2022-09-20T11:44:04;93696.34;;;19.89;33.08
33151;BME280;19508;42.578;23.416;2022-09-20T11:46:40;93696.31;;;20.12;32.40
33151;BME280;19508;42.578;23.416;2022-09-20T11:49:38;93685.50;;;20.07;35.16
33151;BME280;19508;42.578;23.416;2022-09-20T11:55:02;93683.72;;;20.50;32.77
33151;BME280;19508;42.578;23.416;2022-09-20T11:57:32;93677.66;;;20.71;31.87
33151;BME280;19508;42.578;23.416;2022-09-20T12:00:01;93667.41;;;20.85;31.68
33151;BME280;19508;42.578;23.416;2022-09-20T12:02:51;93660.13;;;20.98;31.96
33151;BME280;19508;42.578;23.416;2022-09-20T12:07:58;93673.16;;;20.92;32.64
33151;BME280;19508;42.578;23.416;2022-09-20T12:10:31;93676.41;;;20.86;32.33
33151;BME280;19508;42.578;23.416;2022-09-20T12:13:18;93661.56;;;20.61;32.17
33151;BME280;19508;42.578;23.416;2022-09-20T12:15:57;93659.19;;;21.11;32.03
33151;BME280;19508;42.578;23.416;2022-09-20T12:18:59;93668.69;;;20.96;31.58
33151;BME280;19508;42.578;23.416;2022-09-20T12:21:25;93668.50;;;21.10;31.63
33151;BME280;19508;42.578;23.416;2022-09-20T12:29:00;93661.00;;;22.27;29.36
33151;BME280;19508;42.578;23.416;2022-09-20T12:39:23;93659.31;;;23.35;26.83
33151;BME280;19508;42.578;23.416;2022-09-20T12:42:23;93671.06;;;23.77;27.48
33151;BME280;19508;42.578;23.416;2022-09-20T12:44:59;93663.63;;;23.57;26.73
33151;BME280;19508;42.578;23.416;2022-09-20T12:47:28;93665.91;;;23.76;26.86
33151;BME280;19508;42.578;23.416;2022-09-20T12:49:55;93667.53;;;23.56;26.41
33151;BME280;19508;42.578;23.416;2022-09-20T13:03:43;93657.34;;;21.67;27.58
33151;BME280;19508;42.578;23.416;2022-09-20T13:09:04;93659.72;;;20.39;29.14
33151;BME280;19508;42.578;23.416;2022-09-20T13:11:52;93672.72;;;19.85;30.68
33151;BME280;19508;42.578;23.416;2022-09-20T13:14:26;93662.03;;;19.66;32.18
33151;BME280;19508;42.578;23.416;2022-09-20T13:17:25;93663.00;;;19.48;32.33
33151;BME280;19508;42.578;23.416;2022-09-20T13:19:53;93665.66;;;19.08;33.46
33151;BME280;19508;42.578;23.416;2022-09-20T13:22:54;93665.06;;;18.61;34.25
33151;BME280;19508;42.578;23.416;2022-09-20T13:25:23;93670.19;;;18.63;33.70
33151;BME280;19508;42.578;23.416;2022-09-20T13:28:06;93672.63;;;18.64;34.19
33151;BME280;19508;42.578;23.416;2022-09-20T13:30:38;93666.31;;;18.55;34.10
33151;BME280;19508;42.578;23.416;2022-09-20T13:33:22;93665.50;;;18.54;34.52
33151;BME280;19508;42.578;23.416;2022-09-20T13:35:53;93663.50;;;18.32;33.90
33151;BME280;19508;42.578;23.416;2022-09-20T13:38:35;93658.78;;;18.24;34.02
33151;BME280;19508;42.578;23.416;2022-09-20T13:41:07;93667.66;;;18.16;34.52
33151;BME280;19508;42.578;23.416;2022-09-20T13:43:57;93664.53;;;18.09;34.28
33151;BME280;19508;42.578;23.416;2022-09-20T13:46:45;93656.97;;;18.06;35.07
33151;BME280;19508;42.578;23.416;2022-09-20T13:49:41;93661.63;;;17.92;35.41
33151;BME280;19508;42.578;23.416;2022-09-20T13:52:46;93660.28;;;17.62;36.16
33151;BME280;19508;42.578;23.416;2022-09-20T13:55:49;93653.03;;;17.25;35.90
33151;BME280;19508;42.578;23.416;2022-09-20T13:58:31;93664.75;;;17.39;36.55
33151;BME280;19508;42.578;23.416;2022-09-20T14:01:02;93662.66;;;17.49;36.05
33151;BME280;19508;42.578;23.416;2022-09-20T14:03:44;93658.34;;;17.62;36.05
33151;BME280;19508;42.578;23.416;2022-09-20T14:06:34;93656.63;;;17.53;36.64
33151;BME280;19508;42.578;23.416;2022-09-20T14:09:33;93658.94;;;17.59;35.42
33151;BME280;19508;42.578;23.416;2022-09-20T14:12:04;93651.88;;;17.58;36.09
33151;BME280;19508;42.578;23.416;2022-09-20T14:14:32;93654.41;;;17.68;36.23
33151;BME280;19508;42.578;23.416;2022-09-20T14:17:12;93658.50;;;17.71;35.46
33151;BME280;19508;42.578;23.416;2022-09-20T14:19:41;93653.91;;;17.53;36.54
33151;BME280;19508;42.578;23.416;2022-09-20T14:22:22;93653.38;;;17.51;34.68
33151;BME280;19508;42.578;23.416;2022-09-20T14:27:36;93646.81;;;17.38;34.42
33151;BME280;19508;42.578;23.416;2022-09-20T14:30:04;93661.16;;;17.43;35.92
33151;BME280;19508;42.578;23.416;2022-09-20T14:33:01;93661.97;;;17.44;35.69
33151;BME280;19508;42.578;23.416;2022-09-20T14:35:29;93657.28;;;17.31;35.14
33151;BME280;19508;42.578;23.416;2022-09-20T14:38:29;93659.00;;;17.27;36.22
33151;BME280;19508;42.578;23.416;2022-09-20T14:41:02;93673.97;;;17.24;35.80
33151;BME280;19508;42.578;23.416;2022-09-20T14:43:40;93663.03;;;17.43;37.16
33151;BME280;19508;42.578;23.416;2022-09-20T14:46:50;93668.78;;;17.28;35.84
33151;BME280;19508;42.578;23.416;2022-09-20T14:49:42;93661.34;;;17.47;35.87
33151;BME280;19508;42.578;23.416;2022-09-20T14:53:33;93679.47;;;17.38;37.12
33151;BME280;19508;42.578;23.416;2022-09-20T14:56:07;93668.41;;;17.48;36.16
33151;BME280;19508;42.578;23.416;2022-09-20T15:01:52;93670.81;;;17.03;37.55
33151;BME280;19508;42.578;23.416;2022-09-20T15:04:29;93666.06;;;16.76;36.70
33151;BME280;19508;42.578;23.416;2022-09-20T15:07:09;93666.78;;;16.82;37.38
33151;BME280;19508;42.578;23.416;2022-09-20T15:09:47;93667.97;;;16.76;37.66
33151;BME280;19508;42.578;23.416;2022-09-20T15:12:36;93668.31;;;16.50;39.15
33151;BME280;19508;42.578;23.416;2022-09-20T15:15:04;93667.88;;;16.62;39.05
33151;BME280;19508;42.578;23.416;2022-09-20T15:17:43;93666.13;;;16.52;38.04
33151;BME280;19508;42.578;23.416;2022-09-20T15:20:18;93669.44;;;16.49;38.33
33151;BME280;19508;42.578;23.416;2022-09-20T15:22:48;93668.84;;;16.52;38.89
33151;BME280;19508;42.578;23.416;2022-09-20T15:25:33;93672.88;;;16.55;39.03
33151;BME280;19508;42.578;23.416;2022-09-20T15:28:27;93668.44;;;16.40;38.87
33151;BME280;19508;42.578;23.416;2022-09-20T15:31:11;93672.81;;;16.41;40.06
33151;BME280;19508;42.578;23.416;2022-09-20T15:33:43;93672.56;;;16.38;39.60
33151;BME280;19508;42.578;23.416;2022-09-20T15:36:10;93667.78;;;16.29;40.48
33151;BME280;19508;42.578;23.416;2022-09-20T15:38:36;93673.94;;;16.16;40.45
33151;BME280;19508;42.578;23.416;2022-09-20T15:41:04;93674.31;;;16.10;42.18
33151;BME280;19508;42.578;23.416;2022-09-20T15:43:30;93681.00;;;15.93;42.20
33151;BME280;19508;42.578;23.416;2022-09-20T15:46:12;93685.94;;;15.91;41.39
33151;BME280;19508;42.578;23.416;2022-09-20T15:48:41;93690.31;;;15.87;40.97
33151;BME280;19508;42.578;23.416;2022-09-20T15:51:09;93680.09;;;15.79;41.88
33151;BME280;19508;42.578;23.416;2022-09-20T15:53:39;93692.56;;;15.80;42.79
33151;BME280;19508;42.578;23.416;2022-09-20T15:56:33;93695.84;;;15.77;43.50
33151;BME280;19508;42.578;23.416;2022-09-20T16:01:40;93678.78;;;15.47;44.40
33151;BME280;19508;42.578;23.416;2022-09-20T16:04:14;93685.34;;;15.41;44.94
33151;BME280;19508;42.578;23.416;2022-09-20T16:06:41;93682.25;;;15.24;45.06
33151;BME280;19508;42.578;23.416;2022-09-20T16:09:07;93691.00;;;15.16;44.70
33151;BME280;19508;42.578;23.416;2022-09-20T16:11:34;93679.69;;;15.09;45.14
33151;BME280;19508;42.578;23.416;2022-09-20T16:14:00;93698.13;;;15.07;45.44
33151;BME280;19508;42.578;23.416;2022-09-20T16:16:27;93679.78;;;14.93;45.25
33151;BME280;19508;42.578;23.416;2022-09-20T16:19:00;93693.84;;;15.01;45.45
33151;BME280;19508;42.578;23.416;2022-09-20T16:21:52;93699.56;;;14.99;46.40
33151;BME280;19508;42.578;23.416;2022-09-20T16:24:29;93686.44;;;14.77;46.71
33151;BME280;19508;42.578;23.416;2022-09-20T16:26:57;93693.22;;;14.80;47.12
33151;BME280;19508;42.578;23.416;2022-09-20T16:29:25;93702.66;;;14.82;47.30
33151;BME280;19508;42.578;23.416;2022-09-20T16:31:53;93690.31;;;14.66;47.92
33151;BME280;19508;42.578;23.416;2022-09-20T16:34:27;93699.00;;;14.63;48.21
33151;BME280;19508;42.578;23.416;2022-09-20T16:36:56;93699.59;;;14.55;48.63
33151;BME280;19508;42.578;23.416;2022-09-20T16:39:26;93706.13;;;14.49;49.32
33151;BME280;19508;42.578;23.416;2022-09-20T16:42:02;93699.44;;;14.36;49.54
33151;BME280;19508;42.578;23.416;2022-09-20T16:44:33;93712.44;;;14.29;49.76
33151;BME280;19508;42.578;23.416;2022-09-20T16:46:58;93723.06;;;14.15;50.34
33151;BME280;19508;42.578;23.416;2022-09-20T16:49:24;93717.41;;;14.06;50.37
33151;BME280;19508;42.578;23.416;2022-09-20T16:51:54;93737.75;;;13.99;50.82
33151;BME280;19508;42.578;23.416;2022-09-20T16:54:19;93728.91;;;13.78;50.75
33151;BME280;19508;42.578;23.416;2022-09-20T16:56:49;93722.97;;;13.66;51.03
33151;BME280;19508;42.578;23.416;2022-09-20T16:59:19;93716.25;;;13.53;51.34
33151;BME280;19508;42.578;23.416;2022-09-20T17:01:49;93722.22;;;13.45;52.20
33151;BME280;19508;42.578;23.416;2022-09-20T17:04:15;93727.63;;;13.35;52.46
33151;BME280;19508;42.578;23.416;2022-09-20T17:06:43;93737.09;;;13.37;52.42
33151;BME280;19508;42.578;23.416;2022-09-20T17:09:12;93733.88;;;13.25;52.74
33151;BME280;19508;42.578;23.416;2022-09-20T17:11:40;93745.22;;;13.22;53.20
33151;BME280;19508;42.578;23.416;2022-09-20T17:14:06;93751.94;;;13.14;53.18
33151;BME280;19508;42.578;23.416;2022-09-20T17:16:35;93748.19;;;13.00;53.57
33151;BME280;19508;42.578;23.416;2022-09-20T17:19:06;93747.63;;;12.93;53.41
33151;BME280;19508;42.578;23.416;2022-09-20T17:21:34;93756.53;;;12.88;53.13
33151;BME280;19508;42.578;23.416;2022-09-20T17:24:01;93745.16;;;12.66;53.41
33151;BME280;19508;42.578;23.416;2022-09-20T17:26:32;93756.50;;;12.68;53.74
33151;BME280;19508;42.578;23.416;2022-09-20T17:28:59;93753.50;;;12.54;53.63
33151;BME280;19508;42.578;23.416;2022-09-20T17:31:29;93764.31;;;12.49;53.95
33151;BME280;19508;42.578;23.416;2022-09-20T17:33:57;93762.63;;;12.38;54.15
33151;BME280;19508;42.578;23.416;2022-09-20T17:36:26;93761.03;;;12.32;54.77
33151;BME280;19508;42.578;23.416;2022-09-20T17:38:54;93758.25;;;12.22;54.76
33151;BME280;19508;42.578;23.416;2022-09-20T17:41:21;93759.63;;;12.19;54.60
33151;BME280;19508;42.578;23.416;2022-09-20T17:43:47;93767.44;;;12.21;54.69
33151;BME280;19508;42.578;23.416;2022-09-20T17:46:18;93768.22;;;12.11;55.12
33151;BME280;19508;42.578;23.416;2022-09-20T17:48:47;93777.63;;;12.03;55.01
33151;BME280;19508;42.578;23.416;2022-09-20T17:51:17;93780.34;;;12.03;55.26
33151;BME280;19508;42.578;23.416;2022-09-20T17:53:43;93786.81;;;12.02;55.50
33151;BME280;19508;42.578;23.416;2022-09-20T17:56:10;93778.72;;;11.97;55.30
33151;BME280;19508;42.578;23.416;2022-09-20T17:58:37;93772.19;;;11.88;55.92
33151;BME280;19508;42.578;23.416;2022-09-20T18:01:05;93782.72;;;11.95;56.01
33151;BME280;19508;42.578;23.416;2022-09-20T18:03:38;93774.91;;;11.93;56.23
33151;BME280;19508;42.578;23.416;2022-09-20T18:08:50;93786.72;;;11.87;56.70
33151;BME280;19508;42.578;23.416;2022-09-20T18:11:19;93783.53;;;11.90;56.72